Acme, Wyoming
Current Conditions -  °F | °C
As of 9:53 AM on Saturday 22 Nov 2014 (Local Time) from KSHR Reporting Station
Few Clouds Few Clouds  
Wind Chill: 53°   Ceiling: Unl
Heat Index: 53°   Visibility: 10mi
Dew Point: 28°   Wind: 22mph
Humidity: 38%   Direction: 250°WSW
Pressure: 29.41"   Gusts: 36mph
Location:  44.8885°N, 107.104°W
Report Text: KSHR 221653Z AUTO 25019G31KT 10SM FEW120 12/M02 A2941 RMK AO2 PK WND 22034/1634 WSHFT 1609 SLP958 T01171022 TSNO
Loading
Personal Weather Stations






























Interactive Weather Map New forecast layout! Learn more

10-Day Weather Forecast

Advertisements
Track Severe Weather on mobile